56II weather

Adams Co Memorial Hospital Heliport
Decatur, Indiana, United States

Public forecast

Using degrees Fahrenheit for public forecast. Weather courtesy of forecast.io.

METAR (pilot weather report)

Closest report is Fort Wayne International Airport, 15.8 nm (29.2 km) NW. Retrieved 2019/04/25 12:54 UTC (28 minutes ago):

KFWA 251254Z 11006KT 10SM OVC014 12/08 A2984 RMK AO2 SLP105 T01220083

TAF (pilot weather forecast)

Closest forecast is Fort Wayne International Airport, 15.8 nm (29.2 km) NW. Retrieved 2019/04/25 12:24 UTC (58 minutes ago):

TAF KFWA 251121Z 2512/2612 13005KT P6SM OVC016 FM260200 01005KT 5SM SHRA BR OVC008 FM260600 34008KT 4SM SHRA BR OVC005 FM260900 33012G20KT 6SM SHRA BR OVC010